KPTN/PTN METAR and TAF weather

Enter ICAO airport designator
Station Type Date Time Source
KPTN METAR 2022/01/23 12:56 UTC NOAA

KPTN 231256Z AUTO 35003KT 10SM CLR M02/M04 A3033 RMK AO2 SLP270 T10171044 FZRANO $


Station Type Date Time Source
KPTN Decoded METAR 2022/01/23 12:56 UTC NOAA

Patterson Memorial, LA, United States (KPTN) 29-43N 091-20W
Jan 23, 2022 - 07:56 AM EST / 2022.01.23 1256 UTC
Wind: from the N (350 degrees) at 3 MPH (3 KT):0
Visibility: 10 mile(s):0
Sky conditions: clear
Temperature: 28.9 F (-1.7 C)
Dew Point: 24.1 F (-4.4 C)
Relative Humidity: 81%
Pressure (altimeter): 30.33 in. Hg (1027 hPa)
ob: KPTN 231256Z AUTO 35003KT 10SM CLR M02/M04 A3033 RMK AO2 SLP270 T10171044 FZRANO
cycle: 13

Station Type Date Time Source
KPTN TAF UTC NOAA

Error!

Example: see airport list